NEWFOUND LAKE DAM: From 05/02/2022 07:00 to 05/16/2022 23:00

Date STAGE [FT] FLOW [CFS] LAKE ELEVATION [FT] PRECIPITATION INCREMENT [IN] AIR TEMPERATURE [DEGF]
05/16/2022 10:00 -- -- 587.69 -- --
05/16/2022 09:00 4.69 62.6 587.68 0.00 64.7
05/16/2022 08:00 4.69 62.6 587.71 0.00 63.1
05/16/2022 07:00 4.70 64.0 587.68 0.00 62.6
05/16/2022 06:00 4.69 62.6 587.70 0.00 62.4
05/16/2022 05:00 4.69 62.6 587.71 0.00 63.0
05/16/2022 04:00 4.69 62.6 587.69 0.00 64.0
05/16/2022 03:00 4.69 62.6 587.69 0.00 64.0
05/16/2022 02:00 4.69 62.6 587.70 0.00 64.2
05/16/2022 01:00 4.69 62.6 587.68 0.00 64.6
05/16/2022 00:00 4.69 62.6 587.69 0.00 64.6
05/15/2022 23:00 4.68 61.1 587.70 0.00 65.3
05/15/2022 22:00 4.69 62.6 587.68 0.00 66.4
05/15/2022 21:00 4.70 64.0 587.68 0.00 68.2
05/15/2022 20:00 4.70 64.0 587.68 0.00 70.4
05/15/2022 19:00 4.70 64.0 587.67 0.00 71.4
05/15/2022 18:00 4.71 65.4 587.67 0.00 70.9
05/15/2022 17:00 4.71 65.4 587.67 0.00 73.3
05/15/2022 16:00 4.71 65.4 587.69 0.00 74.0
05/15/2022 15:00 4.69 62.6 587.66 0.01 74.5
05/15/2022 14:00 4.69 62.6 587.67 0.00 73.7
05/15/2022 13:00 4.70 64.0 587.66 0.00 72.9
05/15/2022 12:00 4.70 64.0 587.65 0.00 72.7
05/15/2022 11:00 4.69 62.6 587.67 0.00 69.2
05/15/2022 10:00 4.70 64.0 587.69 0.00 66.7
05/15/2022 09:00 5.82 308.9 587.63 0.00 63.2
05/15/2022 08:00 5.82 308.9 587.65 0.00 61.9
05/15/2022 07:00 5.83 311.9 587.65 0.00 61.3
05/15/2022 06:00 5.83 311.9 587.62 0.00 60.9
05/15/2022 05:00 5.83 311.9 587.68 0.01 61.1
05/15/2022 04:00 5.84 314.8 587.67 0.01 61.6
05/15/2022 03:00 5.84 314.8 587.66 0.00 61.3
05/15/2022 02:00 5.82 308.9 587.69 0.00 61.8
05/15/2022 01:00 5.82 308.9 587.69 0.01 62.4
05/15/2022 00:00 5.82 308.9 587.68 0.00 62.6
05/14/2022 23:00 5.82 308.9 587.69 0.00 63.6
05/14/2022 22:00 5.82 308.9 587.71 0.01 64.7
05/14/2022 21:00 5.82 308.9 587.70 0.10 65.3
05/14/2022 20:00 5.83 311.9 587.71 0.00 70.4
05/14/2022 19:00 5.82 308.9 587.71 0.00 76.4
05/14/2022 18:00 5.81 305.9 587.72 0.00 83.0
05/14/2022 17:00 5.83 311.9 587.71 0.00 83.9
05/14/2022 16:00 5.84 314.8 587.72 0.00 86.0
05/14/2022 15:00 5.81 305.9 587.74 0.00 84.9
05/14/2022 14:00 5.82 308.9 587.74 0.00 84.9
05/14/2022 13:00 5.82 308.9 587.75 0.00 82.9
05/14/2022 12:00 5.83 311.9 587.76 0.00 80.5
05/14/2022 11:00 5.84 314.8 587.75 0.00 77.2
05/14/2022 10:00 5.84 314.8 587.76 0.00 73.2
05/14/2022 09:00 5.82 308.9 587.78 0.00 62.8
05/14/2022 08:00 5.84 314.8 587.77 0.00 58.7
05/14/2022 07:00 5.82 308.9 587.78 0.00 58.0
05/14/2022 06:00 5.82 308.9 587.80 0.00 58.6
05/14/2022 05:00 5.82 308.9 587.79 0.00 59.7
05/14/2022 04:00 5.82 308.9 587.81 0.00 60.9
05/14/2022 03:00 5.82 308.9 587.81 0.00 62.5
05/14/2022 02:00 5.83 311.9 587.82 0.00 64.8
05/14/2022 01:00 5.84 314.8 587.82 0.00 67.3
05/14/2022 00:00 5.83 311.9 587.84 0.00 68.0
05/13/2022 23:00 5.84 314.8 587.84 0.00 68.6
05/13/2022 22:00 5.82 308.9 587.86 0.00 68.3
05/13/2022 21:00 5.82 308.9 587.84 0.00 72.0
05/13/2022 20:00 5.84 314.8 587.86 0.00 77.8
05/13/2022 19:00 5.85 317.8 587.85 0.00 84.1
05/13/2022 18:00 5.84 314.8 587.84 0.00 84.4
05/13/2022 17:00 5.84 314.8 587.91 0.00 86.8
05/13/2022 16:00 5.83 311.9 587.88 0.00 85.4
05/13/2022 15:00 5.84 314.8 587.90 0.00 83.7
05/13/2022 14:00 5.85 317.8 587.91 0.00 83.5
05/13/2022 13:00 5.84 314.8 587.91 0.00 80.2
05/13/2022 12:00 5.83 311.9 587.92 0.00 76.9
05/13/2022 11:00 5.82 308.9 587.94 0.00 68.8
05/13/2022 10:00 4.55 44.0 587.94 0.00 63.1
05/13/2022 09:00 4.55 44.0 587.94 0.00 56.2
05/13/2022 08:00 4.55 44.0 587.96 0.00 54.1
05/13/2022 07:00 4.55 44.0 587.96 0.00 52.9
05/13/2022 06:00 4.55 44.0 587.93 0.00 52.8
05/13/2022 05:00 4.55 44.0 587.95 0.00 53.1
05/13/2022 04:00 4.54 42.8 587.94 0.00 54.7
05/13/2022 03:00 4.56 45.2 587.96 0.00 55.4
05/13/2022 02:00 4.55 44.0 587.94 0.00 57.6
05/13/2022 01:00 4.56 45.2 587.97 0.00 60.1
05/13/2022 00:00 4.54 42.8 587.94 0.00 61.9
05/12/2022 23:00 4.55 44.0 587.94 0.00 63.1
05/12/2022 22:00 4.55 44.0 587.95 0.00 67.1
05/12/2022 21:00 4.54 42.8 587.94 0.00 71.6
05/12/2022 20:00 4.55 44.0 587.93 0.00 76.0
05/12/2022 19:00 4.56 45.2 587.95 0.00 81.1
05/12/2022 18:00 4.55 44.0 587.94 0.00 82.9
05/12/2022 17:00 4.55 44.0 587.95 0.00 82.8
05/12/2022 16:00 4.55 44.0 587.93 0.00 81.3
05/12/2022 15:00 4.56 45.2 587.95 0.00 79.8
05/12/2022 14:00 4.55 44.0 587.93 0.00 79.4
05/12/2022 13:00 4.55 44.0 587.93 0.00 78.6
05/12/2022 12:00 4.55 44.0 587.95 0.00 72.4
05/12/2022 11:00 4.54 42.8 587.94 0.00 63.5
05/12/2022 10:00 4.54 42.8 587.91 0.00 58.1
05/12/2022 09:00 4.55 44.0 587.94 0.00 49.5
05/12/2022 08:00 4.54 42.8 587.92 0.00 45.9
05/12/2022 07:00 4.53 41.6 587.90 0.00 42.0
05/12/2022 06:00 4.55 44.0 587.94 0.00 42.6
05/12/2022 05:00 4.54 42.8 587.92 0.00 43.4
05/12/2022 04:00 4.54 42.8 587.91 0.00 44.3
05/12/2022 03:00 4.54 42.8 587.92 0.00 46.0
05/12/2022 02:00 4.54 42.8 587.92 0.00 47.5
05/12/2022 01:00 4.54 42.8 587.93 0.00 50.2
05/12/2022 00:00 4.54 42.8 587.92 0.00 52.0
05/11/2022 23:00 4.54 42.8 587.92 0.00 52.9
05/11/2022 22:00 4.54 42.8 587.92 0.00 56.4
05/11/2022 21:00 4.55 44.0 587.93 0.00 62.0
05/11/2022 20:00 4.55 44.0 587.93 0.00 69.4
05/11/2022 19:00 4.54 42.8 587.91 0.00 76.3
05/11/2022 18:00 4.54 42.8 587.91 0.00 76.0
05/11/2022 17:00 4.54 42.8 587.92 0.00 74.8
05/11/2022 16:00 4.54 42.8 587.90 0.00 73.1
05/11/2022 15:00 4.54 42.8 587.90 0.00 71.9
05/11/2022 14:00 4.54 42.8 587.90 0.00 69.3
05/11/2022 13:00 4.55 44.0 587.92 0.00 66.6
05/11/2022 12:00 4.54 42.8 587.90 0.00 64.7
05/11/2022 11:00 4.53 41.6 587.90 0.00 62.1
05/11/2022 10:00 4.53 41.6 587.93 0.00 57.2
05/11/2022 09:00 4.51 39.3 587.89 0.00 44.8
05/11/2022 08:00 4.52 40.4 587.89 0.00 39.6
05/11/2022 07:00 4.52 40.4 587.90 0.00 35.9
05/11/2022 06:00 4.52 40.4 587.89 0.00 36.5
05/11/2022 05:00 4.52 40.4 587.89 0.00 37.8
05/11/2022 04:00 4.52 40.4 587.90 0.00 39.3
05/11/2022 03:00 4.52 40.4 587.90 0.00 42.0
05/11/2022 02:00 4.52 40.4 587.89 0.00 43.1
05/11/2022 01:00 4.52 40.4 587.91 0.00 44.9
05/11/2022 00:00 4.52 40.4 587.90 0.00 47.2
05/10/2022 23:00 4.52 40.4 587.89 0.00 49.4
05/10/2022 22:00 4.52 40.4 587.90 0.00 53.8
05/10/2022 21:00 4.52 40.4 587.91 0.00 59.7
05/10/2022 20:00 4.52 40.4 587.89 0.00 64.5
05/10/2022 19:00 4.52 40.4 587.89 0.00 69.9
05/10/2022 18:00 4.52 40.4 587.87 0.00 70.1
05/10/2022 17:00 4.52 40.4 587.87 0.00 69.7
05/10/2022 16:00 4.52 40.4 587.90 0.00 68.0
05/10/2022 15:00 4.52 40.4 587.88 0.00 66.8
05/10/2022 14:00 4.52 40.4 587.88 0.00 64.8
05/10/2022 13:00 4.52 40.4 587.88 0.00 62.8
05/10/2022 12:00 4.51 39.3 587.89 0.00 59.9
05/10/2022 11:00 4.51 39.3 587.87 0.00 57.3
05/10/2022 10:00 4.52 40.4 587.89 0.00 53.0
05/10/2022 09:00 4.51 39.3 587.86 0.00 43.8
05/10/2022 08:00 4.51 39.3 587.86 0.00 39.1
05/10/2022 07:00 4.52 40.4 587.88 0.00 34.3
05/10/2022 06:00 4.51 39.3 587.87 0.00 35.3
05/10/2022 05:00 4.51 39.3 587.87 0.00 36.0
05/10/2022 04:00 4.52 40.4 587.87 0.00 37.4
05/10/2022 03:00 4.51 39.3 587.86 0.00 39.0
05/10/2022 02:00 4.51 39.3 587.86 0.00 41.0
05/10/2022 01:00 4.52 40.4 587.86 0.00 42.6
05/10/2022 00:00 4.51 39.3 587.86 0.00 45.2
05/09/2022 23:00 4.51 39.3 587.87 0.00 51.0
05/09/2022 22:00 4.52 40.4 587.85 0.00 53.3
05/09/2022 21:00 4.52 40.4 587.86 0.00 57.4
05/09/2022 20:00 4.51 39.3 587.87 0.00 63.3
05/09/2022 19:00 4.51 39.3 587.85 0.00 66.9
05/09/2022 18:00 4.52 40.4 587.85 0.00 67.3
05/09/2022 17:00 4.52 40.4 587.90 0.00 66.8
05/09/2022 16:00 4.51 39.3 587.88 0.00 66.7
05/09/2022 15:00 4.51 39.3 587.84 0.00 65.0
05/09/2022 14:00 4.52 40.4 587.87 0.00 62.5
05/09/2022 13:00 4.52 40.4 587.86 0.00 61.8
05/09/2022 12:00 4.52 40.4 587.88 0.00 59.8
05/09/2022 11:00 4.51 39.3 587.86 0.00 57.9
05/09/2022 10:00 4.51 39.3 587.81 0.00 52.8
05/09/2022 09:00 4.51 39.3 587.81 0.00 40.0
05/09/2022 08:00 4.51 39.3 587.85 0.00 33.4
05/09/2022 07:00 4.50 38.1 587.82 0.00 30.4
05/09/2022 06:00 4.51 39.3 587.82 0.00 31.5
05/09/2022 05:00 4.51 39.3 587.83 0.00 32.4
05/09/2022 04:00 4.50 38.1 587.82 0.00 34.7
05/09/2022 03:00 4.51 39.3 587.84 0.00 35.9
05/09/2022 02:00 4.51 39.3 587.83 0.00 35.6
05/09/2022 01:00 4.50 38.1 587.82 0.00 37.8
05/09/2022 00:00 4.51 39.3 587.83 0.00 39.5
05/08/2022 23:00 4.50 38.1 587.83 0.00 41.8
05/08/2022 22:00 4.51 39.3 587.82 0.00 44.9
05/08/2022 21:00 4.51 39.3 587.82 0.00 50.4
05/08/2022 20:00 4.51 39.3 587.81 0.00 54.7
05/08/2022 19:00 4.51 39.3 587.82 0.00 59.5
05/08/2022 18:00 4.51 39.3 587.83 0.00 60.5
05/08/2022 17:00 4.51 39.3 587.79 0.00 59.6
05/08/2022 16:00 4.51 39.3 587.83 0.00 59.2
05/08/2022 15:00 4.51 39.3 587.83 0.00 56.6
05/08/2022 14:00 4.51 39.3 587.84 0.00 56.7
05/08/2022 13:00 4.51 39.3 587.84 0.00 55.3
05/08/2022 12:00 4.51 39.3 587.86 0.00 53.1
05/08/2022 11:00 4.50 38.1 587.81 0.00 51.6
05/08/2022 10:00 4.50 38.1 587.81 0.00 48.1
05/08/2022 09:00 4.50 38.1 587.80 0.00 40.9
05/08/2022 08:00 4.50 38.1 587.80 0.00 36.4
05/08/2022 07:00 4.50 38.1 587.80 0.00 34.3
05/08/2022 06:00 4.50 38.1 587.80 0.00 36.3
05/08/2022 05:00 4.50 38.1 587.80 0.00 36.2
05/08/2022 04:00 4.50 38.1 587.80 0.00 36.6
05/08/2022 03:00 4.51 39.3 587.80 0.00 37.8
05/08/2022 02:00 4.50 38.1 587.79 0.00 37.8
05/08/2022 01:00 4.50 38.1 587.79 0.00 38.5
05/08/2022 00:00 4.50 38.1 587.80 0.00 40.1
05/07/2022 23:00 4.50 38.1 587.78 0.00 43.5
05/07/2022 22:00 4.51 39.3 587.78 0.00 46.5
05/07/2022 21:00 4.51 39.3 587.78 0.00 49.5
05/07/2022 20:00 4.50 38.1 587.79 0.00 52.0
05/07/2022 19:00 4.50 38.1 587.79 0.00 54.9
05/07/2022 18:00 4.51 39.3 587.79 0.00 56.0
05/07/2022 17:00 4.50 38.1 587.77 0.00 55.5
05/07/2022 16:00 4.51 39.3 587.77 0.00 54.7
05/07/2022 15:00 4.50 38.1 587.79 0.00 53.2
05/07/2022 14:00 4.50 38.1 587.78 0.00 51.0
05/07/2022 13:00 4.50 38.1 587.75 0.00 50.3
05/07/2022 12:00 4.50 38.1 587.76 0.00 48.1
05/07/2022 11:00 4.50 38.1 587.76 0.00 47.1
05/07/2022 10:00 4.50 38.1 587.76 0.00 44.9
05/07/2022 09:00 4.50 38.1 587.78 0.00 43.9
05/07/2022 08:00 4.50 38.1 587.80 0.00 43.4
05/07/2022 07:00 4.50 38.1 587.77 0.00 41.5
05/07/2022 06:00 4.50 38.1 587.78 0.00 41.4
05/07/2022 05:00 4.51 39.3 587.79 0.00 44.4
05/07/2022 04:00 4.50 38.1 587.77 0.00 44.7
05/07/2022 03:00 4.50 38.1 587.76 0.00 46.2
05/07/2022 02:00 4.50 38.1 587.76 0.00 47.5
05/07/2022 01:00 4.51 39.3 587.77 0.00 50.5
05/07/2022 00:00 4.50 38.1 587.76 0.00 49.4
05/06/2022 23:00 4.51 39.3 587.73 0.00 49.4
05/06/2022 22:00 4.50 38.1 587.75 0.00 53.2
05/06/2022 21:00 4.51 39.3 587.75 0.00 57.1
05/06/2022 20:00 4.50 38.1 587.75 0.00 60.9
05/06/2022 19:00 4.51 39.3 587.74 0.00 62.5
05/06/2022 18:00 4.51 39.3 587.74 0.00 62.5
05/06/2022 17:00 4.51 39.3 587.74 0.00 62.5
05/06/2022 16:00 4.51 39.3 587.72 0.00 62.8
05/06/2022 15:00 4.50 38.1 587.71 0.00 62.8
05/06/2022 14:00 4.51 39.3 587.72 0.00 62.3
05/06/2022 13:00 4.50 38.1 587.71 0.00 60.3
05/06/2022 12:00 4.50 38.1 587.71 0.00 57.9
05/06/2022 11:00 4.50 38.1 587.69 0.00 55.8
05/06/2022 10:00 4.51 39.3 587.69 0.00 46.1
05/06/2022 09:00 4.50 38.1 587.70 0.00 42.2
05/06/2022 08:00 4.50 38.1 587.68 0.00 40.0
05/06/2022 07:00 4.50 38.1 587.67 0.00 37.9
05/06/2022 06:00 4.50 38.1 587.70 0.00 39.0
05/06/2022 05:00 4.50 38.1 587.67 0.00 39.2
05/06/2022 04:00 4.50 38.1 587.67 0.00 39.6
05/06/2022 03:00 4.51 39.3 587.68 0.00 40.9
05/06/2022 02:00 4.50 38.1 587.67 0.00 42.7
05/06/2022 01:00 4.50 38.1 587.65 0.00 43.7
05/06/2022 00:00 4.50 38.1 587.67 0.00 44.7
05/05/2022 23:00 4.51 39.3 587.67 0.00 47.7
05/05/2022 22:00 4.51 39.3 587.64 0.00 50.0
05/05/2022 21:00 4.51 39.3 587.65 0.00 52.7
05/05/2022 20:00 4.51 39.3 587.66 0.00 60.2
05/05/2022 19:00 4.51 39.3 587.66 0.00 62.1
05/05/2022 18:00 4.50 38.1 587.62 0.00 62.9
05/05/2022 17:00 4.51 39.3 587.65 0.00 62.5
05/05/2022 16:00 4.51 39.3 587.65 0.00 60.9
05/05/2022 15:00 4.51 39.3 587.61 0.00 59.6
05/05/2022 14:00 4.50 38.1 587.63 0.00 56.7
05/05/2022 13:00 4.50 38.1 587.59 0.00 54.7
05/05/2022 12:00 4.49 37.0 587.57 0.00 52.3
05/05/2022 11:00 4.50 38.1 587.64 0.00 49.8
05/05/2022 10:00 4.49 37.0 587.61 0.00 48.7
05/05/2022 09:00 4.50 38.1 587.58 0.00 46.8
05/05/2022 08:00 4.49 37.0 587.58 0.00 45.4
05/05/2022 07:00 4.50 38.1 587.57 0.00 45.5
05/05/2022 06:00 4.49 37.0 587.52 0.00 46.9
05/05/2022 05:00 4.50 38.1 587.57 0.00 49.1
05/05/2022 04:00 4.50 38.1 587.54 0.00 45.2
05/05/2022 03:00 4.50 38.1 587.54 0.00 47.4
05/05/2022 02:00 4.50 38.1 587.51 0.00 49.4
05/05/2022 01:00 4.50 38.1 587.50 0.01 50.8
05/05/2022 00:00 4.50 38.1 587.51 0.00 48.9
05/04/2022 23:00 4.50 38.1 587.47 0.01 47.3
05/04/2022 22:00 4.49 37.0 587.48 0.03 47.6
05/04/2022 21:00 4.49 37.0 587.47 0.07 47.6
05/04/2022 20:00 4.49 37.0 587.43 0.07 47.6
05/04/2022 19:00 4.49 37.0 587.43 0.00 48.6
05/04/2022 18:00 4.49 37.0 587.43 0.00 48.2
05/04/2022 17:00 4.49 37.0 587.41 0.00 48.9
05/04/2022 16:00 4.49 37.0 587.40 0.01 47.7
05/04/2022 15:00 4.49 37.0 587.40 0.02 47.1
05/04/2022 14:00 4.49 37.0 587.38 0.02 46.7
05/04/2022 13:00 4.49 37.0 587.37 0.04 46.3
05/04/2022 12:00 4.49 37.0 587.38 0.06 46.0
05/04/2022 11:00 4.49 37.0 587.38 0.08 45.8
05/04/2022 10:00 4.49 37.0 587.35 0.14 45.1
05/04/2022 09:00 4.49 37.0 587.35 0.10 44.9
05/04/2022 08:00 4.49 37.0 587.32 0.04 44.7
05/04/2022 07:00 4.50 38.1 587.38 0.00 44.5
05/04/2022 06:00 4.49 37.0 587.40 0.00 44.7
05/04/2022 05:00 4.49 37.0 587.34 0.00 44.8
05/04/2022 04:00 4.49 37.0 587.34 0.01 44.9
05/04/2022 03:00 4.49 37.0 587.32 0.00 45.2
05/04/2022 02:00 4.49 37.0 587.32 0.03 45.5
05/04/2022 01:00 4.49 37.0 587.32 0.01 47.2
05/04/2022 00:00 4.49 37.0 587.31 0.00 49.4
05/03/2022 23:00 4.49 37.0 587.31 0.00 49.3
05/03/2022 22:00 4.49 37.0 587.32 0.00 50.1
05/03/2022 21:00 4.49 37.0 587.31 0.00 51.5
05/03/2022 20:00 4.49 37.0 587.30 0.00 52.8
05/03/2022 19:00 4.50 38.1 587.32 0.00 53.8
05/03/2022 18:00 4.49 37.0 587.31 0.00 53.3
05/03/2022 17:00 4.49 37.0 587.31 0.00 52.8
05/03/2022 16:00 4.49 37.0 587.30 0.00 52.2
05/03/2022 15:00 4.49 37.0 587.31 0.00 52.5
05/03/2022 14:00 4.49 37.0 587.30 0.00 51.1
05/03/2022 13:00 4.49 37.0 587.30 0.00 51.3
05/03/2022 12:00 4.49 37.0 587.29 0.00 50.6
05/03/2022 11:00 4.49 37.0 587.30 0.00 48.9
05/03/2022 10:00 4.49 37.0 587.30 0.00 47.5
05/03/2022 09:00 4.48 35.9 587.28 0.00 45.4
05/03/2022 08:00 4.49 37.0 587.28 0.00 44.4
05/03/2022 07:00 4.48 35.9 587.28 0.00 44.1
05/03/2022 06:00 4.49 37.0 587.28 0.00 44.1
05/03/2022 05:00 4.49 37.0 587.28 0.02 44.1
05/03/2022 04:00 4.49 37.0 587.29 0.01 44.0
05/03/2022 03:00 4.49 37.0 587.28 0.00 44.0
05/03/2022 02:00 4.49 37.0 587.27 0.00 44.1
05/03/2022 01:00 4.49 37.0 587.26 0.01 44.4
05/03/2022 00:00 4.49 37.0 587.26 0.00 44.6
05/02/2022 23:00 4.49 37.0 587.28 0.02 44.8
05/02/2022 22:00 4.49 37.0 587.25 0.02 46.8
05/02/2022 21:00 4.48 35.9 587.26 0.03 47.8
05/02/2022 20:00 4.49 37.0 587.27 0.01 49.5
05/02/2022 19:00 4.49 37.0 587.27 0.00 52.0
05/02/2022 18:00 4.49 37.0 587.25 0.00 53.2
05/02/2022 17:00 -- -- -- -- --
05/02/2022 16:00 -- -- -- -- --
05/02/2022 15:00 -- -- -- -- --
05/02/2022 14:00 -- -- -- -- --
05/02/2022 13:00 -- -- -- -- --
05/02/2022 12:00 -- -- -- -- --
05/02/2022 11:00 -- -- -- -- --
05/02/2022 10:00 -- -- -- -- --
05/02/2022 09:00 -- -- -- -- --
05/02/2022 08:00 -- -- -- -- --
05/02/2022 07:00 -- -- -- -- --